Time;durP1;ratioP1;P1;durP2;ratioP2;P2;SDS_P1;SDS_P2;PMS_P1;PMS_P2;Temp;Humidity;BMP_temperature;BMP_pressure;BME280_temperature;BME280_humidity;BME280_pressure;Samples;Min_cycle;Max_cycle;Signal;HPM_P1;HPM_P2
2021/05/20 00:00:21;;;;;;;30.95;18.02;;;8.50;99.90;;;10.04;95.50;100919.47;4953398;29;20073;-82
2021/05/20 00:02:47;;;;;;;28.92;18.30;;;8.50;99.90;;;10.02;95.03;100917.03;4953614;29;20035;-82
2021/05/20 00:05:16;;;;;;;25.48;16.48;;;8.50;99.90;;;10.01;95.16;100909.00;4954080;29;20035;-82
2021/05/20 00:07:45;;;;;;;29.75;19.30;;;8.50;99.90;;;9.98;95.40;100920.88;4953866;28;20031;-83
2021/05/20 00:10:13;;;;;;;27.35;17.77;;;8.40;99.90;;;9.95;95.12;100930.72;4953809;28;20059;-82
2021/05/20 00:12:43;;;;;;;33.35;19.30;;;8.40;99.90;;;9.95;95.28;100925.16;4938087;29;20055;-81
2021/05/20 00:15:09;;;;;;;33.03;19.73;;;8.40;99.90;;;9.93;95.58;100933.06;4953814;28;20027;-81
2021/05/20 00:17:35;;;;;;;28.67;18.80;;;8.40;99.90;;;9.91;95.23;100935.41;4957562;29;20129;-85
2021/05/20 00:20:03;;;;;;;38.13;21.90;;;8.30;99.90;;;9.83;95.53;100941.88;4969491;29;20026;-79
2021/05/20 00:22:29;;;;;;;41.33;22.83;;;8.30;99.90;;;9.84;95.63;100946.31;4977416;28;20054;-79
2021/05/20 00:24:56;;;;;;;40.85;23.65;;;8.30;99.90;;;9.83;95.64;100944.66;4975876;28;20099;-80
2021/05/20 00:27:22;;;;;;;40.83;23.75;;;8.30;99.90;;;9.82;95.96;100940.28;4974031;28;20027;-83
2021/05/20 00:29:49;;;;;;;37.15;21.90;;;8.30;99.90;;;9.86;96.00;100935.59;4956832;28;20034;-84
2021/05/20 00:32:17;;;;;;;40.30;23.65;;;8.30;99.90;;;9.84;96.05;100937.13;4956508;29;20038;-83
2021/05/20 00:34:43;;;;;;;38.80;23.23;;;8.30;99.90;;;9.82;96.12;100933.88;4955808;28;20031;-82
2021/05/20 00:37:09;;;;;;;39.05;22.77;;;8.30;99.90;;;9.75;96.49;100944.78;4956842;29;20496;-81
2021/05/20 00:39:35;;;;;;;40.67;22.75;;;8.30;99.90;;;9.72;96.67;100937.91;4955084;29;20594;-82
2021/05/20 00:42:12;;;;;;;42.88;24.38;;;8.30;99.90;;;9.74;96.73;100946.75;4956558;29;20130;-84
2021/05/20 00:44:57;;;;;;;50.22;26.00;;;8.30;99.90;;;9.76;97.04;100932.47;4953766;28;20042;-80
2021/05/20 00:47:29;;;;;;;44.13;25.60;;;8.40;99.90;;;9.80;97.13;100941.75;4953857;28;20062;-81
2021/05/20 00:49:55;;;;;;;46.45;25.67;;;8.40;99.90;;;9.83;97.34;100941.88;4953673;29;20634;-82
2021/05/20 00:52:23;;;;;;;45.97;25.77;;;8.40;99.90;;;9.89;97.26;100946.06;4953962;29;20502;-82
2021/05/20 00:54:56;;;;;;;41.25;24.77;;;8.40;99.90;;;9.96;97.20;100946.31;4966602;28;20050;-82
2021/05/20 00:57:23;;;;;;;45.15;25.77;;;8.50;99.90;;;9.97;97.17;100944.34;4955070;28;20054;-81
2021/05/20 00:59:50;;;;;;;48.33;26.60;;;8.50;99.90;;;9.96;97.18;100939.91;4952824;29;20038;-81
2021/05/20 01:02:18;;;;;;;43.13;25.83;;;8.50;99.90;;;9.97;97.42;100939.59;4953249;29;20099;-82
2021/05/20 01:04:45;;;;;;;52.40;29.35;;;8.50;99.90;;;9.98;97.44;100946.81;4954696;28;20041;-81
2021/05/20 01:07:12;;;;;;;48.38;26.88;;;8.50;99.90;;;9.98;97.32;100949.59;4953184;29;20027;-82
2021/05/20 01:09:40;;;;;;;43.85;24.20;;;8.50;99.90;;;9.94;97.08;100957.03;4952908;28;20038;-85
2021/05/20 01:12:11;;;;;;;45.45;26.40;;;8.50;99.90;;;9.96;96.97;100959.44;4953603;28;20081;-81
2021/05/20 01:14:45;;;;;;;42.45;25.73;;;8.50;99.90;;;9.95;96.83;100955.06;4952853;28;20126;-79
2021/05/20 01:17:12;;;;;;;45.70;25.85;;;8.40;99.90;;;9.83;97.15;100955.81;4953267;28;20109;-84
2021/05/20 01:19:45;;;;;;;50.80;28.27;;;8.40;99.90;;;9.80;97.79;100962.09;4953158;29;20122;-82
2021/05/20 01:22:13;;;;;;;47.72;27.58;;;8.40;99.90;;;9.79;97.32;100949.31;4952891;28;20046;-82
2021/05/20 01:24:40;;;;;;;48.83;27.77;;;8.40;99.90;;;9.80;97.68;100953.72;4952963;28;20031;-82
2021/05/20 01:27:09;;;;;;;50.08;27.77;;;8.40;99.90;;;9.87;97.93;100967.94;4953120;29;20058;-81
2021/05/20 01:29:39;;;;;;;56.05;30.10;;;8.40;99.90;;;9.90;97.87;100964.44;4953029;29;20030;-81
2021/05/20 01:32:06;;;;;;;54.70;30.25;;;8.50;99.90;;;9.98;97.96;100960.75;4954321;28;20028;-83
2021/05/20 01:34:34;;;;;;;55.85;31.85;;;8.50;99.90;;;9.99;97.83;100956.78;4952574;28;20031;-82
2021/05/20 01:37:02;;;;;;;55.53;31.13;;;8.60;99.90;;;10.01;98.12;100956.44;4952798;29;20037;-82
2021/05/20 01:39:28;;;;;;;51.25;30.20;;;8.60;99.90;;;10.06;97.93;100953.44;4954250;28;20106;-83
2021/05/20 01:41:54;;;;;;;56.08;31.60;;;8.60;99.90;;;10.06;97.62;100945.06;4952661;29;20392;-82
2021/05/20 01:44:21;;;;;;;50.35;29.83;;;8.60;99.90;;;10.05;97.50;100955.41;4952849;28;20027;-82
2021/05/20 01:46:47;;;;;;;51.80;28.65;;;8.60;99.90;;;10.03;97.84;100957.72;4952907;28;20457;-81
2021/05/20 01:49:14;;;;;;;52.75;28.80;;;8.60;99.90;;;10.04;97.77;100959.38;4952422;29;20060;-82
2021/05/20 01:51:41;;;;;;;47.97;29.48;;;8.60;99.90;;;9.99;97.32;100959.56;4952797;29;20031;-82
2021/05/20 01:54:08;;;;;;;42.05;25.92;;;8.50;99.90;;;9.97;97.38;100953.53;4953165;28;20042;-81
2021/05/20 01:56:36;;;;;;;48.95;28.30;;;8.60;99.90;;;10.02;97.74;100961.66;4952774;29;20047;-81
2021/05/20 01:59:09;;;;;;;59.60;31.73;;;8.60;99.90;;;10.04;97.71;100956.56;4953022;29;20042;-81
2021/05/20 02:01:35;;;;;;;54.65;30.73;;;8.60;99.90;;;10.12;97.58;100962.38;4954441;28;20047;-81
2021/05/20 02:04:03;;;;;;;64.47;34.45;;;8.70;99.90;;;10.15;97.63;100967.28;4953394;28;20038;-82
2021/05/20 02:06:29;;;;;;;66.60;34.70;;;8.70;99.90;;;10.17;98.07;100965.81;4975039;28;20031;-80
2021/05/20 02:08:55;;;;;;;65.03;34.83;;;8.70;99.90;;;10.21;98.10;100969.50;4976709;28;20115;-80
2021/05/20 02:11:21;;;;;;;73.40;38.35;;;8.70;99.90;;;10.28;98.17;100969.75;4978481;28;20055;-82
2021/05/20 02:13:47;;;;;;;78.28;39.47;;;8.80;99.90;;;10.31;97.99;100971.84;4956917;28;20035;-82
2021/05/20 02:16:13;;;;;;;81.82;39.80;;;8.80;99.90;;;10.29;98.36;100954.63;4956858;29;20492;-82
2021/05/20 02:18:39;;;;;;;86.43;41.55;;;8.90;99.90;;;10.25;98.02;100959.28;4956786;29;20134;-81
2021/05/20 02:21:06;;;;;;;77.38;36.28;;;8.90;99.90;;;10.27;98.24;100959.75;4956421;28;20037;-83
2021/05/20 02:23:32;;;;;;;80.18;39.25;;;8.80;99.90;;;10.22;97.80;100956.38;4956424;28;20031;-82
2021/05/20 02:25:58;;;;;;;85.38;40.00;;;8.80;99.90;;;10.15;98.24;100965.31;4943185;28;20484;-82
2021/05/20 02:28:25;;;;;;;110.97;48.42;;;8.80;99.90;;;10.16;98.90;100969.75;4936735;29;20035;-82
2021/05/20 02:30:51;;;;;;;110.75;46.90;;;8.80;99.90;;;10.16;98.83;100966.97;4938076;29;20036;-82
2021/05/20 02:33:17;;;;;;;109.30;47.25;;;8.80;99.90;;;10.23;99.05;100969.19;4937269;29;20106;-84
2021/05/20 02:35:43;;;;;;;112.30;47.08;;;8.90;99.90;;;10.29;98.63;100971.38;4938045;29;20051;-81
2021/05/20 02:38:09;;;;;;;114.43;49.22;;;8.80;99.90;;;10.36;98.65;100966.03;4937689;29;20038;-82
2021/05/20 02:40:36;;;;;;;100.97;42.38;;;8.90;99.90;;;10.39;98.12;100964.53;4938403;29;20118;-81
2021/05/20 02:43:03;;;;;;;110.82;48.35;;;8.90;99.90;;;10.40;98.38;100960.56;4937065;29;20447;-83
2021/05/20 02:45:29;;;;;;;104.28;45.10;;;9.00;99.90;;;10.38;98.11;100969.28;4938456;29;20034;-81
2021/05/20 02:47:56;;;;;;;107.40;47.30;;;8.90;99.90;;;10.37;98.85;100970.44;4938318;29;20506;-83
2021/05/20 02:50:25;;;;;;;102.38;45.20;;;8.90;99.90;;;10.37;98.61;100972.44;4937206;29;20043;-82
2021/05/20 02:52:52;;;;;;;100.15;46.60;;;9.00;99.90;;;10.44;98.23;100983.81;4937073;29;20106;-80
2021/05/20 02:55:23;;;;;;;105.78;47.10;;;9.00;99.90;;;10.36;98.46;100973.59;4953287;28;20115;-83
2021/05/20 02:57:56;;;;;;;100.07;46.75;;;9.00;99.90;;;10.40;98.29;100974.53;4937585;29;20031;-84
2021/05/20 03:00:28;;;;;;;112.97;48.10;;;9.00;99.90;;;10.45;98.25;100983.50;4938316;29;20056;-82
2021/05/20 03:02:54;;;;;;;109.13;49.40;;;9.00;99.90;;;10.43;98.60;100985.00;4936604;29;20058;-82
2021/05/20 03:05:20;;;;;;;109.10;47.28;;;9.00;99.90;;;10.51;98.35;100993.25;4937281;29;20062;-81
2021/05/20 03:07:47;;;;;;;115.75;50.00;;;9.10;99.90;;;10.47;98.35;100989.53;4937553;29;20032;-81
2021/05/20 03:10:15;;;;;;;110.68;48.75;;;9.10;99.90;;;10.54;98.05;100995.34;4947394;29;20054;-81
2021/05/20 03:12:41;;;;;;;115.63;50.72;;;9.10;99.90;;;10.48;98.31;100998.72;4937998;29;20027;-82
2021/05/20 03:15:08;;;;;;;121.30;51.72;;;9.10;99.90;;;10.54;98.10;100991.75;4946866;28;20023;-79
2021/05/20 03:17:34;;;;;;;115.78;48.92;;;9.10;99.90;;;10.55;98.18;100991.41;4960989;28;20039;-79
2021/05/20 03:20:02;;;;;;;99.90;46.30;;;9.10;99.90;;;10.60;97.81;101004.31;4940622;28;20492;-82
2021/05/20 03:22:28;;;;;;;117.70;52.22;;;9.10;99.90;;;10.56;97.87;101000.59;4936321;28;20392;-82
2021/05/20 03:24:54;;;;;;;94.45;46.38;;;9.20;99.90;;;10.61;97.76;101003.16;4936145;29;20032;-79
2021/05/20 03:27:20;;;;;;;91.55;44.67;;;9.10;99.90;;;10.65;97.60;101004.09;4936798;29;20051;-80
2021/05/20 03:29:47;;;;;;;89.45;41.97;;;9.10;99.90;;;10.68;97.32;101006.19;4937209;29;20095;-82
2021/05/20 03:32:13;;;;;;;97.80;46.47;;;9.10;99.90;;;10.67;97.86;101001.75;4937920;29;20032;-82
2021/05/20 03:34:39;;;;;;;89.45;40.47;;;9.20;99.90;;;10.69;97.76;101002.19;4936159;29;20030;-82
2021/05/20 03:37:05;;;;;;;90.00;44.60;;;9.20;99.90;;;10.74;97.74;100995.56;4937430;29;20035;-84
2021/05/20 03:39:31;;;;;;;92.03;44.42;;;9.20;99.90;;;10.73;97.31;101005.94;4935649;29;20035;-81
2021/05/20 03:41:58;;;;;;;80.80;40.50;;;9.20;99.90;;;10.71;97.17;101008.28;4937352;29;20496;-83
2021/05/20 03:44:24;;;;;;;91.80;42.53;;;9.20;99.90;;;10.68;97.38;101005.34;4937074;29;20036;-86
2021/05/20 03:46:50;;;;;;;95.75;43.88;;;9.20;99.90;;;10.66;97.32;101016.88;4938772;29;20034;-84
2021/05/20 03:49:17;;;;;;;99.82;45.58;;;9.20;99.90;;;10.66;97.24;101018.88;4939924;29;20508;-83
2021/05/20 03:51:43;;;;;;;97.22;44.33;;;9.10;99.90;;;10.68;96.83;101019.31;4935708;29;20050;-82
2021/05/20 03:54:10;;;;;;;104.45;44.75;;;9.10;99.90;;;10.67;96.53;101020.47;4936549;29;20059;-82
2021/05/20 03:56:36;;;;;;;114.93;49.03;;;9.10;99.90;;;10.63;96.21;101022.38;4936011;29;20320;-82
2021/05/20 03:59:03;;;;;;;115.38;48.42;;;9.10;99.90;;;10.61;96.27;101022.69;4937699;29;20031;-82
2021/05/20 04:01:30;;;;;;;105.18;47.53;;;9.10;99.90;;;10.66;96.25;101030.84;4936284;29;20036;-82
2021/05/20 04:03:56;;;;;;;128.20;49.92;;;9.10;99.90;;;10.58;96.44;101027.00;4937208;29;20032;-83
2021/05/20 04:06:22;;;;;;;112.97;44.15;;;9.10;99.90;;;10.69;96.23;101030.13;4937314;29;20039;-82
2021/05/20 04:08:48;;;;;;;114.32;50.33;;;9.10;99.90;;;10.69;95.78;101035.72;4937955;29;20111;-82
2021/05/20 04:11:14;;;;;;;120.35;49.58;;;9.10;99.90;;;10.70;95.98;101033.75;4955038;29;20035;-83
2021/05/20 04:13:43;;;;;;;125.95;50.78;;;9.20;99.90;;;10.72;95.46;101039.81;4954957;28;20058;-82
2021/05/20 04:16:13;;;;;;;112.75;48.80;;;9.20;99.90;;;10.72;95.17;101048.19;4955227;29;20024;-83
2021/05/20 04:18:41;;;;;;;113.85;49.92;;;9.10;99.90;;;10.76;95.20;101038.75;4956274;28;20114;-83
2021/05/20 04:21:07;;;;;;;103.78;45.70;;;9.20;99.90;;;10.81;95.17;101043.31;4955640;29;20031;-81
2021/05/20 04:23:33;;;;;;;98.47;44.00;;;9.30;99.90;;;10.81;94.95;101038.53;4955358;28;20031;-82
2021/05/20 04:26:00;;;;;;;113.25;49.33;;;9.30;99.90;;;10.79;94.71;101046.44;4955376;29;20031;-83
2021/05/20 04:28:26;;;;;;;99.53;46.10;;;9.30;99.90;;;10.82;94.90;101051.31;4955253;28;20035;-82
2021/05/20 04:30:52;;;;;;;96.53;44.50;;;9.30;99.90;;;10.85;94.50;101044.25;4956497;28;20031;-82
2021/05/20 04:33:18;;;;;;;103.18;45.30;;;9.30;99.90;;;10.86;94.49;101038.28;4956714;28;20027;-83
2021/05/20 04:35:44;;;;;;;98.97;43.33;;;9.30;99.90;;;10.87;94.42;101050.28;4956208;29;20062;-83
2021/05/20 04:38:10;;;;;;;95.40;42.50;;;9.30;99.90;;;10.87;94.54;101051.09;4957086;29;20031;-80
2021/05/20 04:40:39;;;;;;;97.97;43.30;;;9.30;99.90;;;10.85;94.28;101041.44;4955994;29;20027;-82
2021/05/20 04:43:05;;;;;;;101.22;42.95;;;9.30;99.90;;;10.84;94.27;101050.97;4958188;28;20031;-83
2021/05/20 04:45:33;;;;;;;95.60;42.20;;;9.30;99.90;;;10.82;93.97;101050.53;4956131;28;20086;-85
2021/05/20 04:48:00;;;;;;;95.93;42.33;;;9.40;99.90;;;10.84;94.01;101053.78;4939614;29;20027;-83
2021/05/20 04:50:26;;;;;;;83.53;39.88;;;9.30;99.90;;;10.86;94.02;101057.84;4938289;29;20403;-84
2021/05/20 04:52:52;;;;;;;96.13;40.45;;;9.30;99.90;;;10.86;93.67;101057.84;4939816;29;20024;-84
2021/05/20 04:55:18;;;;;;;95.65;43.08;;;9.40;99.90;;;10.89;93.48;101054.34;4936372;29;20027;-82
2021/05/20 04:57:44;;;;;;;90.32;41.63;;;9.40;99.90;;;10.93;92.87;101055.28;4935698;29;20027;-82
2021/05/20 05:00:13;;;;;;;81.05;36.20;;;9.40;99.90;;;10.96;92.97;101059.34;4936700;29;20110;-82
2021/05/20 05:02:40;;;;;;;73.20;34.70;;;9.40;99.90;;;10.98;92.63;101051.44;4935783;29;20059;-82
2021/05/20 05:05:08;;;;;;;81.32;37.67;;;9.40;99.90;;;10.91;92.67;101057.63;4934990;29;20027;-81
2021/05/20 05:07:35;;;;;;;81.78;36.35;;;9.40;99.90;;;11.03;92.51;101052.00;4935414;29;20034;-83
2021/05/20 05:10:04;;;;;;;82.07;36.67;;;9.50;99.90;;;11.17;92.58;101050.84;4947669;29;20062;-81
2021/05/20 05:12:30;;;;;;;90.43;41.03;;;9.60;99.90;;;11.30;91.94;101055.25;4955120;28;20031;-83
2021/05/20 05:14:57;;;;;;;79.80;38.05;;;9.70;99.90;;;11.42;91.15;101067.19;4955432;28;20023;-82
2021/05/20 05:17:25;;;;;;;90.78;42.35;;;9.80;99.90;;;11.51;91.03;101067.06;4954465;28;20031;-83
2021/05/20 05:19:51;;;;;;;76.03;37.25;;;9.90;99.90;;;11.74;89.66;101061.75;4956166;29;20038;-82
2021/05/20 05:22:18;;;;;;;79.82;39.83;;;10.00;99.90;;;11.93;89.95;101068.31;4956140;29;20134;-84
2021/05/20 05:24:44;;;;;;;80.78;38.13;;;10.20;99.90;;;12.13;89.01;101070.09;4955426;28;20036;-85
2021/05/20 05:27:10;;;;;;;90.82;41.15;;;10.40;99.90;;;12.32;87.55;101076.97;4955608;29;20079;-85
2021/05/20 05:29:36;;;;;;;75.32;38.03;;;10.60;99.90;;;12.36;86.78;101073.09;4955887;28;20035;-83
2021/05/20 05:32:03;;;;;;;77.20;37.80;;;10.60;99.90;;;12.35;85.85;101071.47;4957207;29;20047;-85
2021/05/20 05:34:29;;;;;;;72.78;35.40;;;10.60;99.90;;;12.24;85.89;101083.53;4963591;28;20112;-83
2021/05/20 05:36:55;;;;;;;71.30;35.20;;;10.60;99.90;;;12.27;85.76;101085.63;4967950;28;20460;-80
2021/05/20 05:39:21;;;;;;;76.70;35.80;;;10.50;99.90;;;12.23;85.73;101087.53;4955159;29;20106;-84
2021/05/20 05:41:47;;;;;;;67.22;34.17;;;10.60;99.90;;;12.08;85.89;101089.94;4955961;29;20200;-85
2021/05/20 05:44:13;;;;;;;66.38;35.42;;;10.40;99.90;;;12.15;84.43;101078.94;4956215;28;20106;-86
2021/05/20 05:46:40;;;;;;;65.10;32.85;;;10.50;99.90;;;12.21;84.83;101085.09;4956654;29;20042;-84
2021/05/20 05:49:23;;;;;;;61.83;33.38;;;10.50;99.90;;;12.25;84.36;101087.97;4955188;29;20023;-81
2021/05/20 05:51:52;;;;;;;59.33;30.55;;;10.50;99.90;;;12.51;84.11;101094.72;4940970;29;20036;-84
2021/05/20 05:54:18;;;;;;;65.90;33.38;;;10.70;99.90;;;12.63;84.12;101096.59;4953779;28;20027;-81
2021/05/20 05:56:44;;;;;;;65.68;34.97;;;10.80;99.90;;;12.80;83.09;101099.06;4947246;29;20099;-80
2021/05/20 05:59:10;;;;;;;63.17;33.30;;;11.00;99.90;;;12.66;83.29;101101.47;4936408;29;20036;-80
2021/05/20 06:01:41;;;;;;;64.57;34.78;;;11.10;99.90;;;12.41;84.18;101083.22;4938240;29;20111;-81
2021/05/20 06:04:09;;;;;;;58.72;31.45;;;11.10;99.90;;;12.59;82.81;101087.28;4938401;29;20531;-82
2021/05/20 06:06:41;;;;;;;63.33;31.80;;;11.10;99.90;;;12.95;82.29;101091.78;4939687;29;20114;-81
2021/05/20 06:09:08;;;;;;;58.13;31.48;;;11.20;99.90;;;13.08;81.45;101085.75;4938027;29;20044;-84
2021/05/20 06:11:34;;;;;;;61.05;30.40;;;11.30;99.90;;;13.33;80.72;101091.13;4936711;28;20028;-83
2021/05/20 06:14:09;;;;;;;57.97;31.08;;;11.60;99.90;;;13.68;79.46;101089.91;4936843;29;20035;-82
2021/05/20 06:16:44;;;;;;;53.00;30.23;;;12.00;99.90;;;14.21;79.31;101087.38;4955925;29;20083;-83
2021/05/20 06:19:44;;;;;;;54.47;28.23;;;12.30;99.90;;;14.33;75.31;101083.56;4956519;29;20330;-82
2021/05/20 06:22:15;;;;;;;56.78;28.70;;;12.50;99.90;;;14.21;76.15;101078.94;4961316;29;20578;-81
2021/05/20 06:24:42;;;;;;;47.55;26.52;;;12.40;99.90;;;14.07;76.14;101087.09;4961700;28;20038;-81
2021/05/20 06:27:11;;;;;;;44.28;24.67;;;12.30;99.90;;;14.17;75.78;101075.25;4955616;28;20037;-82
2021/05/20 06:29:37;;;;;;;46.85;25.80;;;12.40;99.90;;;13.73;76.88;101091.63;4954578;28;20101;-82
2021/05/20 06:32:04;;;;;;;48.00;24.88;;;12.30;99.90;;;14.06;76.33;101091.09;4955482;28;20483;-84
2021/05/20 06:34:30;;;;;;;46.85;25.08;;;12.30;99.90;;;14.30;75.31;101087.94;4943428;28;20096;-84
2021/05/20 06:36:59;;;;;;;40.60;24.35;;;12.50;99.90;;;14.17;74.84;101084.50;4941421;29;20034;-80
2021/05/20 06:39:28;;;;;;;38.53;21.98;;;12.40;99.90;;;14.13;74.70;101082.78;4956963;28;20032;-79
2021/05/20 06:41:55;;;;;;;42.58;23.98;;;12.30;99.90;;;13.95;73.97;101087.25;4961278;28;20091;-80
2021/05/20 06:44:23;;;;;;;48.15;25.20;;;12.20;99.90;;;13.90;74.78;101081.94;4967241;28;20046;-80
2021/05/20 06:46:49;;;;;;;48.40;26.92;;;12.10;99.90;;;13.96;74.44;101084.09;4974915;28;20043;-78
2021/05/20 06:49:15;;;;;;;42.70;24.13;;;12.10;99.90;;;13.96;74.36;101084.09;4973992;28;20046;-80
2021/05/20 06:51:41;;;;;;;44.20;24.83;;;12.10;99.90;;;14.14;74.37;101082.44;4975938;28;20035;-83
2021/05/20 06:54:07;;;;;;;49.33;25.40;;;12.30;99.90;;;14.31;71.89;101083.97;4960860;28;20043;-83
2021/05/20 06:56:34;;;;;;;45.92;25.23;;;12.50;99.90;;;14.76;72.83;101083.19;4957222;28;20032;-83
2021/05/20 07:01:46;;;;;;;42.28;23.67;;;13.40;99.90;;;16.30;65.57;101086.56;4923024;29;20039;-84
2021/05/20 07:04:14;;;;;;;39.30;22.23;;;14.00;99.90;;;16.38;65.33;101084.63;4938493;29;20030;-82
2021/05/20 07:06:42;;;;;;;40.20;21.63;;;14.50;99.90;;;16.79;64.56;101086.25;4927452;29;20024;-82
2021/05/20 07:09:10;;;;;;;36.08;19.77;;;15.00;99.90;;;17.40;62.57;101099.63;4955597;29;20475;-84
2021/05/20 07:11:36;;;;;;;38.28;20.73;;;15.20;99.90;;;17.06;61.79;101084.06;4946900;29;20031;-83
2021/05/20 07:14:03;;;;;;;41.38;21.80;;;15.00;99.90;;;16.37;64.22;101094.31;4954229;28;20054;-81
2021/05/20 07:16:30;;;;;;;41.20;23.25;;;14.50;99.90;;;16.22;64.81;101086.88;4937447;29;20509;-82
2021/05/20 07:18:56;;;;;;;37.38;21.95;;;14.40;99.90;;;15.94;64.24;101100.63;4937463;29;20036;-84
2021/05/20 07:21:22;;;;;;;38.25;22.67;;;14.20;99.90;;;15.48;66.68;101103.63;4939570;29;20099;-85
2021/05/20 07:23:48;;;;;;;34.33;20.58;;;13.80;99.90;;;15.80;66.11;101102.06;4940905;29;20123;-82
2021/05/20 07:26:14;;;;;;;35.08;20.73;;;13.80;99.90;;;16.17;63.83;101099.31;4941303;29;20051;-84
2021/05/20 07:28:42;;;;;;;29.48;19.48;;;14.00;99.90;;;16.65;63.96;101110.72;4941430;29;20212;-83
2021/05/20 07:31:11;;;;;;;35.17;21.20;;;14.40;99.90;;;16.24;63.78;101109.84;4940878;29;20099;-84
2021/05/20 07:33:38;;;;;;;38.03;22.70;;;14.30;99.90;;;16.30;65.26;101108.31;4941459;29;20023;-84
2021/05/20 07:36:06;;;;;;;33.40;20.65;;;14.40;99.90;;;16.72;62.99;101105.97;4942383;28;20035;-86
2021/05/20 07:38:33;;;;;;;31.98;19.92;;;14.50;99.90;;;16.47;63.63;101110.50;4941573;29;20047;-84
2021/05/20 07:40:59;;;;;;;35.10;20.23;;;14.40;99.90;;;16.11;64.04;101108.50;4941118;29;20063;-84
2021/05/20 07:43:25;;;;;;;36.80;22.52;;;14.20;99.90;;;16.07;64.88;101116.91;4942371;29;20031;-82
2021/05/20 07:45:51;;;;;;;42.45;24.35;;;14.10;99.90;;;15.59;67.47;101124.31;4943011;29;20522;-84
2021/05/20 07:48:18;;;;;;;42.28;24.70;;;13.90;99.90;;;15.84;66.91;101121.84;4944988;29;20066;-82
2021/05/20 07:50:44;;;;;;;41.33;24.40;;;13.90;99.90;;;16.25;66.32;101126.38;4956947;28;20120;-84
2021/05/20 07:53:11;;;;;;;43.10;24.20;;;14.20;99.90;;;16.34;65.34;101124.06;4936289;28;633941;-81
2021/05/20 07:55:37;;;;;;;44.55;25.42;;;14.30;99.90;;;16.90;62.98;101139.97;4959092;28;20543;-76
2021/05/20 07:58:07;;;;;;;45.78;25.95;;;14.80;99.90;;;17.22;62.02;101126.94;4943572;29;20039;-85
2021/05/20 08:00:34;;;;;;;45.53;26.52;;;15.30;99.90;;;18.08;58.62;101137.53;4940340;29;20035;-86
2021/05/20 08:06:12;;;;;;;45.67;25.52;;;16.20;99.90;;;19.32;57.43;101130.13;4940110;29;20027;-84
2021/05/20 08:08:32;;;;;;;36.92;22.15;;;16.90;99.90;;;19.83;52.42;101123.16;4944805;28;20051;-83
2021/05/20 08:11:07;;;;;;;40.63;22.38;;;17.40;99.90;;;19.64;54.34;101130.09;4940114;29;20121;-82
2021/05/20 08:13:35;;;;;;;40.50;21.85;;;17.20;99.90;;;18.62;55.08;101127.25;4940849;29;20039;-85
2021/05/20 08:16:02;;;;;;;37.92;20.70;;;16.70;99.90;;;18.02;57.03;101132.66;4940461;29;20028;-86
2021/05/20 08:18:30;;;;;;;34.92;20.02;;;16.20;99.90;;;17.50;57.93;101134.00;4940122;29;20075;-84
2021/05/20 08:21:02;;;;;;;27.45;18.52;;;16.00;99.90;;;18.50;57.52;101128.44;4955919;29;20031;-83
2021/05/20 08:23:31;;;;;;;32.40;19.42;;;16.40;99.90;;;18.56;56.00;101128.88;4947383;29;20036;-85
2021/05/20 08:25:59;;;;;;;32.08;20.08;;;16.70;99.90;;;19.42;54.19;101123.63;4937998;29;20038;-85
2021/05/20 08:28:25;;;;;;;33.33;20.75;;;17.20;99.90;;;19.01;55.76;101121.63;4937709;29;20118;-83
2021/05/20 08:30:52;;;;;;;28.35;17.88;;;17.30;99.90;;;19.16;54.67;101115.56;4938449;29;20046;-83
2021/05/20 08:33:17;;;;;;;30.77;18.52;;;17.20;99.90;;;19.03;54.56;101111.53;4942278;29;20023;-85
2021/05/20 08:35:44;;;;;;;25.27;16.33;;;17.20;99.90;;;19.13;53.92;101112.72;4939349;29;20042;-84
2021/05/20 08:38:13;;;;;;;25.52;15.95;;;17.40;99.90;;;19.39;53.72;101121.59;4954168;29;20028;-85
2021/05/20 08:40:40;;;;;;;26.13;17.20;;;17.80;99.90;;;19.04;53.52;101118.00;4958611;28;20086;-84
2021/05/20 08:43:17;;;;;;;23.95;15.98;;;17.60;99.90;;;18.50;54.46;101130.44;4958236;28;20090;-85
2021/05/20 08:45:43;;;;;;;22.80;15.68;;;17.00;99.90;;;19.15;54.13;101116.78;4944671;29;20031;-82
2021/05/20 08:48:10;;;;;;;20.77;15.23;;;17.10;99.90;;;20.04;51.13;101111.72;4939865;29;20028;-83
2021/05/20 08:50:45;;;;;;;23.67;16.45;;;17.60;99.90;;;19.79;49.60;101111.00;4940651;29;20055;-82
2021/05/20 08:53:13;;;;;;;21.95;15.18;;;17.50;99.90;;;19.06;52.56;101110.72;4959366;28;20133;-83
2021/05/20 08:55:39;;;;;;;29.27;18.08;;;17.20;99.90;;;18.32;54.46;101114.22;4958610;29;20426;-84
2021/05/20 08:58:12;;;;;;;22.55;16.90;;;16.80;99.90;;;18.79;55.32;101100.97;4958221;28;20027;-84
2021/05/20 09:00:49;;;;;;;31.58;21.48;;;16.80;99.90;;;20.16;51.82;101097.09;4952968;28;20457;-84
2021/05/20 09:03:15;;;;;;;30.23;19.25;;;17.60;99.90;;;20.21;49.66;101095.84;4938789;28;20221;-84
2021/05/20 09:05:43;;;;;;;32.15;19.40;;;17.90;99.90;;;19.81;50.29;101091.59;4945704;29;20051;-84
2021/05/20 09:08:14;;;;;;;21.13;14.40;;;17.90;99.90;;;19.84;49.77;101097.22;4957332;29;20023;-82
2021/05/20 09:10:48;;;;;;;23.27;15.55;;;17.90;99.90;;;17.86;54.65;101101.91;4957542;28;20042;-81
2021/05/20 09:13:20;;;;;;;22.88;15.50;;;17.00;99.90;;;18.83;54.46;101082.00;4956266;28;20385;-83
2021/05/20 09:15:52;;;;;;;21.75;15.45;;;17.20;99.90;;;19.86;52.42;101091.97;4958192;28;20465;-83
2021/05/20 09:18:24;;;;;;;24.98;16.58;;;17.80;99.90;;;20.45;50.83;101094.94;4958356;28;20027;-84
2021/05/20 09:20:56;;;;;;;25.13;16.67;;;18.30;99.90;;;20.78;49.36;101096.31;4957597;29;20391;-83
2021/05/20 09:23:30;;;;;;;21.70;14.50;;;18.50;99.90;;;21.52;46.85;101087.13;4958277;28;20384;-84
2021/05/20 09:26:11;;;;;;;23.00;15.90;;;19.10;99.90;;;21.42;45.24;101091.72;4957869;28;20110;-82
2021/05/20 09:28:48;;;;;;;19.98;14.32;;;19.20;95.90;;;20.33;47.52;101086.88;4937662;29;20121;-85
2021/05/20 09:31:43;;;;;;;17.50;13.43;;;18.70;97.90;;;19.37;51.71;101078.72;4937899;29;20028;-83
2021/05/20 09:34:17;;;;;;;17.00;12.63;;;18.10;99.90;;;20.13;52.10;101080.88;4938327;29;20024;-83
2021/05/20 09:36:50;;;;;;;12.05;9.38;;;18.20;99.90;;;20.57;48.76;101083.09;4935785;29;20082;-83
2021/05/20 09:39:18;;;;;;;11.52;9.23;;;18.30;99.90;;;20.88;47.44;101081.22;4936300;29;20067;-82
2021/05/20 09:41:49;;;;;;;14.80;11.20;;;18.60;99.90;;;20.01;49.08;101081.34;4938602;29;20087;-82
2021/05/20 09:44:31;;;;;;;14.82;11.57;;;18.20;99.90;;;19.37;50.73;101081.53;4939066;29;20043;-84
2021/05/20 09:47:04;;;;;;;16.63;11.85;;;17.70;99.90;;;19.66;51.71;101082.31;4938323;29;20043;-85
2021/05/20 09:49:33;;;;;;;14.32;10.95;;;18.00;99.90;;;20.03;48.11;101076.09;4948932;29;20090;-85
2021/05/20 09:52:22;;;;;;;13.90;10.70;;;18.40;99.90;;;20.23;48.77;101077.19;4955980;29;20051;-83
2021/05/20 09:54:53;;;;;;;14.25;11.93;;;18.40;99.90;;;20.30;47.36;101067.84;4956880;28;20094;-85
2021/05/20 09:57:37;;;;;;;17.13;11.70;;;18.30;99.50;;;21.10;47.87;101077.00;4956722;28;20036;-85
2021/05/20 10:00:17;;;;;;;16.88;13.07;;;18.70;99.90;;;20.96;46.64;101082.81;4955014;29;20027;-82
2021/05/20 10:02:45;;;;;;;20.55;12.13;;;19.00;97.30;;;20.66;46.43;101072.09;4949432;29;20023;-81
2021/05/20 10:05:48;;;;;;;13.57;11.07;;;18.90;95.30;;;20.10;48.60;101073.19;4957937;28;20031;-84
2021/05/20 10:08:18;;;;;;;22.35;14.38;;;18.40;99.90;;;19.26;50.00;101080.78;4958954;29;20059;-83
2021/05/20 10:10:49;;;;;;;20.05;11.75;;;17.70;99.90;;;19.66;51.20;101081.50;4965034;28;20135;-86
2021/05/20 10:13:27;;;;;;;19.75;13.30;;;17.80;99.90;;;20.20;48.86;101078.00;4974934;28;20075;-81